Hlavní strana
METAR-TAF:

METAR-TAF

Letiště :

La Seu d'Urgell, Španělsko

zeměpisná šířka: 42-20-29N, zeměpisná délka: 001-24-17E, výška: 802 m

Aktuální stav počasí

Zpráva byla vytvořena před 11 hodinami a 53 minutami, v 16:30 UTC
Jihozápadní vítr 9 kt
Teplota 22°C
Vlhkost vzduchu 60%
Tlak 1026 hPa
Viditelnost 10 km a více
Oblačno až skoro zataženo ve výšce 5000 ft
Skoro jasno ve výšce 5500 ft, Cumulonimbus.

METAR: LESU 251630Z 22009KT 9999 BKN050 FEW055CB 22/14 Q1026

Čas: 06:23 (04:23 UTC)

Předpověď počasí

Zpráva byla vytvořena před 14 hodinami a 23 minutami, v 14:00 UTC
Předpověď platná od 25 v 15 UTC do 26 v 15 UTC
Jihozápadní vítr 10 kt
Viditelnost 10 km a více
Polojasno ve výšce 4000 ft
Dočasný
od 25 v 15 UTC do 25 v 19 UTC
Viditelnost: 3000 m
Skoro jasno ve výšce 5000 ft, Cumulonimbus.
bouřka, déšť
Změna
od 25 v 18 UTC do 25 v 20 UTC
vítr z různých směrů 5 kt

TAF: LESU 251400Z 2515/2615 22010KT 9999 SCT040 TX29/2613Z TN10/2606Z TEMPO 2515/2519 3000 TSRA FEW050CB BECMG 2518/2520 VRB05KT

Stav a předpovědi počasí z více než 4 000 letišť (zprávy METAR a TAF).

Červené a žluté tečky na mapě představují dostupné meteorologické stanice.

Když kurzor umístíte na tečku, zobrazí se název stanice.

Pak kliknutím zobrazíte stav a předpověď počasí.

Chcete-li změnit mapu, kliknutím na zelené tlačítko se znaménkem +mapu přiblížíte, kliknutím na zelené tlačítko se znaménkem – mapu oddálíte a kliknutím na zelené šipky přejdete na sousední mapy.


METAR-TAF: